sensor_id;sensor_type;location;lat;lon;timestamp;P1;durP1;ratioP1;P2;durP2;ratioP2
23165;SDS011;11751;42.700;24.170;2024-01-15T00:01:41;0.10;;;0.10;;
23165;SDS011;11751;42.700;24.170;2024-01-15T00:04:09;0.15;;;0.15;;
23165;SDS011;11751;42.700;24.170;2024-01-15T00:06:35;0.10;;;0.10;;
23165;SDS011;11751;42.700;24.170;2024-01-15T00:09:01;0.10;;;0.10;;
23165;SDS011;11751;42.700;24.170;2024-01-15T00:11:26;0.10;;;0.10;;
23165;SDS011;11751;42.700;24.170;2024-01-15T00:13:52;0.10;;;0.10;;
23165;SDS011;11751;42.700;24.170;2024-01-15T00:16:17;0.10;;;0.10;;
23165;SDS011;11751;42.700;24.170;2024-01-15T00:18:43;0.10;;;0.10;;
23165;SDS011;11751;42.700;24.170;2024-01-15T00:21:08;0.10;;;0.10;;
23165;SDS011;11751;42.700;24.170;2024-01-15T00:23:33;0.10;;;0.10;;
23165;SDS011;11751;42.700;24.170;2024-01-15T00:25:59;0.10;;;0.10;;
23165;SDS011;11751;42.700;24.170;2024-01-15T00:28:24;0.10;;;0.10;;
23165;SDS011;11751;42.700;24.170;2024-01-15T00:30:50;0.10;;;0.10;;
23165;SDS011;11751;42.700;24.170;2024-01-15T00:33:15;0.10;;;0.10;;
23165;SDS011;11751;42.700;24.170;2024-01-15T00:35:40;0.10;;;0.10;;
23165;SDS011;11751;42.700;24.170;2024-01-15T00:38:06;0.10;;;0.10;;
23165;SDS011;11751;42.700;24.170;2024-01-15T00:40:32;0.10;;;0.10;;
23165;SDS011;11751;42.700;24.170;2024-01-15T00:42:57;0.10;;;0.10;;
23165;SDS011;11751;42.700;24.170;2024-01-15T00:45:23;0.10;;;0.10;;
23165;SDS011;11751;42.700;24.170;2024-01-15T00:47:48;0.10;;;0.10;;
23165;SDS011;11751;42.700;24.170;2024-01-15T00:50:14;0.10;;;0.10;;
23165;SDS011;11751;42.700;24.170;2024-01-15T00:52:39;0.10;;;0.10;;
23165;SDS011;11751;42.700;24.170;2024-01-15T00:55:05;0.10;;;0.10;;
23165;SDS011;11751;42.700;24.170;2024-01-15T00:57:31;0.10;;;0.10;;
23165;SDS011;11751;42.700;24.170;2024-01-15T00:59:57;0.10;;;0.10;;
23165;SDS011;11751;42.700;24.170;2024-01-15T01:02:23;0.10;;;0.10;;
23165;SDS011;11751;42.700;24.170;2024-01-15T01:04:49;0.10;;;0.10;;
23165;SDS011;11751;42.700;24.170;2024-01-15T01:07:14;0.10;;;0.10;;
23165;SDS011;11751;42.700;24.170;2024-01-15T01:09:40;0.10;;;0.10;;
23165;SDS011;11751;42.700;24.170;2024-01-15T01:12:05;0.10;;;0.10;;
23165;SDS011;11751;42.700;24.170;2024-01-15T01:14:31;0.10;;;0.10;;
23165;SDS011;11751;42.700;24.170;2024-01-15T01:16:57;0.10;;;0.10;;
23165;SDS011;11751;42.700;24.170;2024-01-15T01:19:22;0.20;;;0.20;;
23165;SDS011;11751;42.700;24.170;2024-01-15T01:21:48;0.10;;;0.10;;
23165;SDS011;11751;42.700;24.170;2024-01-15T01:24:14;0.10;;;0.10;;
23165;SDS011;11751;42.700;24.170;2024-01-15T01:26:39;0.10;;;0.10;;
23165;SDS011;11751;42.700;24.170;2024-01-15T01:29:04;0.10;;;0.10;;
23165;SDS011;11751;42.700;24.170;2024-01-15T01:31:30;0.10;;;0.10;;
23165;SDS011;11751;42.700;24.170;2024-01-15T01:33:55;0.10;;;0.10;;
23165;SDS011;11751;42.700;24.170;2024-01-15T01:36:20;0.10;;;0.10;;
23165;SDS011;11751;42.700;24.170;2024-01-15T01:38:46;0.10;;;0.10;;
23165;SDS011;11751;42.700;24.170;2024-01-15T01:41:11;0.10;;;0.10;;
23165;SDS011;11751;42.700;24.170;2024-01-15T01:43:37;0.20;;;0.20;;
23165;SDS011;11751;42.700;24.170;2024-01-15T01:46:02;0.10;;;0.10;;
23165;SDS011;11751;42.700;24.170;2024-01-15T01:48:28;0.10;;;0.10;;
23165;SDS011;11751;42.700;24.170;2024-01-15T01:50:56;0.10;;;0.10;;
23165;SDS011;11751;42.700;24.170;2024-01-15T01:53:23;0.10;;;0.10;;
23165;SDS011;11751;42.700;24.170;2024-01-15T01:55:50;0.20;;;0.20;;
23165;SDS011;11751;42.700;24.170;2024-01-15T01:58:16;0.10;;;0.10;;
23165;SDS011;11751;42.700;24.170;2024-01-15T02:00:43;0.10;;;0.10;;
23165;SDS011;11751;42.700;24.170;2024-01-15T02:03:08;0.10;;;0.10;;
23165;SDS011;11751;42.700;24.170;2024-01-15T02:05:34;0.10;;;0.10;;
23165;SDS011;11751;42.700;24.170;2024-01-15T02:08:00;0.10;;;0.10;;
23165;SDS011;11751;42.700;24.170;2024-01-15T02:10:25;0.10;;;0.10;;
23165;SDS011;11751;42.700;24.170;2024-01-15T02:12:51;0.15;;;0.15;;
23165;SDS011;11751;42.700;24.170;2024-01-15T02:15:16;0.10;;;0.10;;
23165;SDS011;11751;42.700;24.170;2024-01-15T02:17:58;0.10;;;0.10;;
23165;SDS011;11751;42.700;24.170;2024-01-15T02:20:32;0.10;;;0.10;;
23165;SDS011;11751;42.700;24.170;2024-01-15T02:23:16;0.10;;;0.10;;
23165;SDS011;11751;42.700;24.170;2024-01-15T02:25:45;0.20;;;0.20;;
23165;SDS011;11751;42.700;24.170;2024-01-15T02:28:12;0.10;;;0.10;;
23165;SDS011;11751;42.700;24.170;2024-01-15T02:30:39;0.10;;;0.10;;
23165;SDS011;11751;42.700;24.170;2024-01-15T02:33:06;0.10;;;0.10;;
23165;SDS011;11751;42.700;24.170;2024-01-15T02:35:32;0.10;;;0.10;;
23165;SDS011;11751;42.700;24.170;2024-01-15T02:37:58;0.10;;;0.10;;
23165;SDS011;11751;42.700;24.170;2024-01-15T02:40:24;0.10;;;0.10;;
23165;SDS011;11751;42.700;24.170;2024-01-15T02:42:50;0.10;;;0.10;;
23165;SDS011;11751;42.700;24.170;2024-01-15T02:45:16;0.10;;;0.10;;
23165;SDS011;11751;42.700;24.170;2024-01-15T02:47:43;0.10;;;0.10;;
23165;SDS011;11751;42.700;24.170;2024-01-15T02:50:08;0.10;;;0.10;;
23165;SDS011;11751;42.700;24.170;2024-01-15T02:52:34;0.10;;;0.10;;
23165;SDS011;11751;42.700;24.170;2024-01-15T02:54:59;0.10;;;0.10;;
23165;SDS011;11751;42.700;24.170;2024-01-15T02:57:25;0.10;;;0.10;;
23165;SDS011;11751;42.700;24.170;2024-01-15T02:59:50;0.10;;;0.10;;
23165;SDS011;11751;42.700;24.170;2024-01-15T03:02:16;0.20;;;0.20;;
23165;SDS011;11751;42.700;24.170;2024-01-15T03:04:44;0.10;;;0.10;;
23165;SDS011;11751;42.700;24.170;2024-01-15T03:07:10;0.10;;;0.10;;
23165;SDS011;11751;42.700;24.170;2024-01-15T03:09:37;0.10;;;0.10;;
23165;SDS011;11751;42.700;24.170;2024-01-15T03:12:06;0.20;;;0.20;;
23165;SDS011;11751;42.700;24.170;2024-01-15T03:14:31;0.10;;;0.10;;
23165;SDS011;11751;42.700;24.170;2024-01-15T03:16:57;0.10;;;0.10;;
23165;SDS011;11751;42.700;24.170;2024-01-15T03:19:22;0.10;;;0.10;;
23165;SDS011;11751;42.700;24.170;2024-01-15T03:21:48;0.20;;;0.20;;
23165;SDS011;11751;42.700;24.170;2024-01-15T03:24:13;0.10;;;0.10;;
23165;SDS011;11751;42.700;24.170;2024-01-15T03:26:39;0.10;;;0.10;;
23165;SDS011;11751;42.700;24.170;2024-01-15T03:29:04;0.10;;;0.10;;
23165;SDS011;11751;42.700;24.170;2024-01-15T03:31:30;0.20;;;0.20;;
23165;SDS011;11751;42.700;24.170;2024-01-15T03:33:55;0.10;;;0.10;;
23165;SDS011;11751;42.700;24.170;2024-01-15T03:36:21;0.10;;;0.10;;
23165;SDS011;11751;42.700;24.170;2024-01-15T03:38:46;0.13;;;0.13;;
23165;SDS011;11751;42.700;24.170;2024-01-15T03:41:12;0.10;;;0.10;;
23165;SDS011;11751;42.700;24.170;2024-01-15T03:43:39;0.10;;;0.10;;
23165;SDS011;11751;42.700;24.170;2024-01-15T03:46:05;0.20;;;0.20;;
23165;SDS011;11751;42.700;24.170;2024-01-15T03:48:31;0.10;;;0.10;;
23165;SDS011;11751;42.700;24.170;2024-01-15T03:50:57;0.20;;;0.20;;
23165;SDS011;11751;42.700;24.170;2024-01-15T03:53:22;0.20;;;0.20;;
23165;SDS011;11751;42.700;24.170;2024-01-15T03:55:48;0.10;;;0.10;;
23165;SDS011;11751;42.700;24.170;2024-01-15T03:58:14;0.20;;;0.20;;
23165;SDS011;11751;42.700;24.170;2024-01-15T04:00:42;0.10;;;0.10;;
23165;SDS011;11751;42.700;24.170;2024-01-15T04:03:07;0.17;;;0.17;;
23165;SDS011;11751;42.700;24.170;2024-01-15T04:05:33;0.10;;;0.10;;
23165;SDS011;11751;42.700;24.170;2024-01-15T04:07:59;0.10;;;0.10;;
23165;SDS011;11751;42.700;24.170;2024-01-15T04:10:24;0.10;;;0.10;;
23165;SDS011;11751;42.700;24.170;2024-01-15T04:12:49;0.20;;;0.20;;
23165;SDS011;11751;42.700;24.170;2024-01-15T04:15:15;0.17;;;0.17;;
23165;SDS011;11751;42.700;24.170;2024-01-15T04:17:40;0.15;;;0.15;;
23165;SDS011;11751;42.700;24.170;2024-01-15T04:20:06;0.10;;;0.10;;
23165;SDS011;11751;42.700;24.170;2024-01-15T04:22:33;0.10;;;0.10;;
23165;SDS011;11751;42.700;24.170;2024-01-15T04:24:59;0.10;;;0.10;;
23165;SDS011;11751;42.700;24.170;2024-01-15T04:27:24;0.10;;;0.10;;
23165;SDS011;11751;42.700;24.170;2024-01-15T04:29:50;0.10;;;0.10;;
23165;SDS011;11751;42.700;24.170;2024-01-15T04:32:15;0.10;;;0.10;;
23165;SDS011;11751;42.700;24.170;2024-01-15T04:34:41;0.20;;;0.20;;
23165;SDS011;11751;42.700;24.170;2024-01-15T04:37:06;0.10;;;0.10;;
23165;SDS011;11751;42.700;24.170;2024-01-15T04:39:31;0.10;;;0.10;;
23165;SDS011;11751;42.700;24.170;2024-01-15T04:41:57;0.10;;;0.10;;
23165;SDS011;11751;42.700;24.170;2024-01-15T04:44:22;0.10;;;0.10;;
23165;SDS011;11751;42.700;24.170;2024-01-15T04:46:48;0.17;;;0.17;;
23165;SDS011;11751;42.700;24.170;2024-01-15T04:49:13;0.10;;;0.10;;
23165;SDS011;11751;42.700;24.170;2024-01-15T04:51:38;0.10;;;0.10;;
23165;SDS011;11751;42.700;24.170;2024-01-15T04:54:04;0.10;;;0.10;;
23165;SDS011;11751;42.700;24.170;2024-01-15T04:56:29;0.20;;;0.20;;
23165;SDS011;11751;42.700;24.170;2024-01-15T04:58:55;0.10;;;0.10;;
23165;SDS011;11751;42.700;24.170;2024-01-15T05:01:20;0.10;;;0.10;;
23165;SDS011;11751;42.700;24.170;2024-01-15T05:03:46;0.10;;;0.10;;
23165;SDS011;11751;42.700;24.170;2024-01-15T05:06:11;0.20;;;0.20;;
23165;SDS011;11751;42.700;24.170;2024-01-15T05:08:37;0.10;;;0.10;;
23165;SDS011;11751;42.700;24.170;2024-01-15T05:11:02;0.10;;;0.10;;
23165;SDS011;11751;42.700;24.170;2024-01-15T05:13:27;0.10;;;0.10;;
23165;SDS011;11751;42.700;24.170;2024-01-15T05:15:53;0.10;;;0.10;;
23165;SDS011;11751;42.700;24.170;2024-01-15T05:18:18;0.10;;;0.10;;
23165;SDS011;11751;42.700;24.170;2024-01-15T05:20:44;0.10;;;0.10;;
23165;SDS011;11751;42.700;24.170;2024-01-15T05:23:09;0.10;;;0.10;;
23165;SDS011;11751;42.700;24.170;2024-01-15T05:25:35;0.10;;;0.10;;
23165;SDS011;11751;42.700;24.170;2024-01-15T05:28:00;0.10;;;0.10;;
23165;SDS011;11751;42.700;24.170;2024-01-15T05:30:26;0.10;;;0.10;;
23165;SDS011;11751;42.700;24.170;2024-01-15T05:32:51;0.10;;;0.10;;
23165;SDS011;11751;42.700;24.170;2024-01-15T05:35:17;0.10;;;0.10;;
23165;SDS011;11751;42.700;24.170;2024-01-15T05:37:43;0.10;;;0.10;;
23165;SDS011;11751;42.700;24.170;2024-01-15T05:40:13;0.10;;;0.10;;
23165;SDS011;11751;42.700;24.170;2024-01-15T05:42:39;0.10;;;0.10;;
23165;SDS011;11751;42.700;24.170;2024-01-15T05:45:05;0.10;;;0.10;;
23165;SDS011;11751;42.700;24.170;2024-01-15T05:47:31;0.10;;;0.10;;
23165;SDS011;11751;42.700;24.170;2024-01-15T05:49:56;0.10;;;0.10;;
23165;SDS011;11751;42.700;24.170;2024-01-15T05:52:22;0.10;;;0.10;;
23165;SDS011;11751;42.700;24.170;2024-01-15T05:54:48;0.10;;;0.10;;
23165;SDS011;11751;42.700;24.170;2024-01-15T05:57:14;0.10;;;0.10;;
23165;SDS011;11751;42.700;24.170;2024-01-15T05:59:40;0.10;;;0.10;;
23165;SDS011;11751;42.700;24.170;2024-01-15T06:02:05;0.10;;;0.10;;
23165;SDS011;11751;42.700;24.170;2024-01-15T06:04:30;0.10;;;0.10;;
23165;SDS011;11751;42.700;24.170;2024-01-15T06:06:56;0.10;;;0.10;;
23165;SDS011;11751;42.700;24.170;2024-01-15T06:09:21;0.10;;;0.10;;
23165;SDS011;11751;42.700;24.170;2024-01-15T06:11:46;0.10;;;0.10;;
23165;SDS011;11751;42.700;24.170;2024-01-15T06:14:12;0.10;;;0.10;;
23165;SDS011;11751;42.700;24.170;2024-01-15T06:16:37;0.10;;;0.10;;
23165;SDS011;11751;42.700;24.170;2024-01-15T06:19:03;0.10;;;0.10;;
23165;SDS011;11751;42.700;24.170;2024-01-15T06:21:28;0.10;;;0.10;;
23165;SDS011;11751;42.700;24.170;2024-01-15T06:23:53;0.10;;;0.10;;
23165;SDS011;11751;42.700;24.170;2024-01-15T06:26:21;0.10;;;0.10;;
23165;SDS011;11751;42.700;24.170;2024-01-15T06:28:47;0.10;;;0.10;;
23165;SDS011;11751;42.700;24.170;2024-01-15T06:31:12;0.10;;;0.10;;
23165;SDS011;11751;42.700;24.170;2024-01-15T06:33:38;0.10;;;0.10;;
23165;SDS011;11751;42.700;24.170;2024-01-15T06:36:03;0.10;;;0.10;;
23165;SDS011;11751;42.700;24.170;2024-01-15T06:38:30;0.13;;;0.13;;
23165;SDS011;11751;42.700;24.170;2024-01-15T06:40:55;0.10;;;0.10;;
23165;SDS011;11751;42.700;24.170;2024-01-15T06:43:21;0.10;;;0.10;;
23165;SDS011;11751;42.700;24.170;2024-01-15T06:45:46;0.10;;;0.10;;
23165;SDS011;11751;42.700;24.170;2024-01-15T06:48:12;0.10;;;0.10;;
23165;SDS011;11751;42.700;24.170;2024-01-15T06:50:39;0.10;;;0.10;;
23165;SDS011;11751;42.700;24.170;2024-01-15T06:53:05;0.10;;;0.10;;
23165;SDS011;11751;42.700;24.170;2024-01-15T06:55:31;0.10;;;0.10;;
23165;SDS011;11751;42.700;24.170;2024-01-15T06:57:56;0.10;;;0.10;;
23165;SDS011;11751;42.700;24.170;2024-01-15T07:00:22;0.10;;;0.10;;
23165;SDS011;11751;42.700;24.170;2024-01-15T07:02:47;0.10;;;0.10;;
23165;SDS011;11751;42.700;24.170;2024-01-15T07:05:13;0.10;;;0.10;;
23165;SDS011;11751;42.700;24.170;2024-01-15T07:07:38;0.10;;;0.10;;
23165;SDS011;11751;42.700;24.170;2024-01-15T07:10:04;0.10;;;0.10;;
23165;SDS011;11751;42.700;24.170;2024-01-15T07:12:31;0.10;;;0.10;;
23165;SDS011;11751;42.700;24.170;2024-01-15T07:14:56;0.10;;;0.10;;
23165;SDS011;11751;42.700;24.170;2024-01-15T07:17:22;0.10;;;0.10;;
23165;SDS011;11751;42.700;24.170;2024-01-15T07:19:47;0.10;;;0.10;;
23165;SDS011;11751;42.700;24.170;2024-01-15T07:22:13;0.10;;;0.10;;
23165;SDS011;11751;42.700;24.170;2024-01-15T07:24:40;0.10;;;0.10;;
23165;SDS011;11751;42.700;24.170;2024-01-15T07:27:05;0.10;;;0.10;;
23165;SDS011;11751;42.700;24.170;2024-01-15T07:29:31;0.10;;;0.10;;
23165;SDS011;11751;42.700;24.170;2024-01-15T07:31:58;0.10;;;0.10;;
23165;SDS011;11751;42.700;24.170;2024-01-15T07:34:23;0.10;;;0.10;;
23165;SDS011;11751;42.700;24.170;2024-01-15T07:36:49;0.10;;;0.10;;
23165;SDS011;11751;42.700;24.170;2024-01-15T07:39:14;0.10;;;0.10;;
23165;SDS011;11751;42.700;24.170;2024-01-15T07:41:40;0.10;;;0.10;;
23165;SDS011;11751;42.700;24.170;2024-01-15T07:44:05;0.10;;;0.10;;
23165;SDS011;11751;42.700;24.170;2024-01-15T07:46:31;0.10;;;0.10;;
23165;SDS011;11751;42.700;24.170;2024-01-15T07:48:57;0.10;;;0.10;;
23165;SDS011;11751;42.700;24.170;2024-01-15T07:51:23;0.10;;;0.10;;
23165;SDS011;11751;42.700;24.170;2024-01-15T07:53:52;0.10;;;0.10;;
23165;SDS011;11751;42.700;24.170;2024-01-15T07:56:19;0.10;;;0.10;;
23165;SDS011;11751;42.700;24.170;2024-01-15T07:58:44;0.10;;;0.10;;
23165;SDS011;11751;42.700;24.170;2024-01-15T08:01:10;0.10;;;0.10;;
23165;SDS011;11751;42.700;24.170;2024-01-15T08:03:35;0.10;;;0.10;;
23165;SDS011;11751;42.700;24.170;2024-01-15T08:06:01;0.10;;;0.10;;
23165;SDS011;11751;42.700;24.170;2024-01-15T08:08:26;0.10;;;0.10;;
23165;SDS011;11751;42.700;24.170;2024-01-15T08:10:52;0.10;;;0.10;;
23165;SDS011;11751;42.700;24.170;2024-01-15T08:13:18;0.00;;;0.00;;
23165;SDS011;11751;42.700;24.170;2024-01-15T08:15:43;0.10;;;0.10;;
23165;SDS011;11751;42.700;24.170;2024-01-15T08:18:10;0.05;;;0.05;;
23165;SDS011;11751;42.700;24.170;2024-01-15T08:20:36;0.10;;;0.10;;
23165;SDS011;11751;42.700;24.170;2024-01-15T08:23:02;0.10;;;0.10;;
23165;SDS011;11751;42.700;24.170;2024-01-15T08:25:27;0.10;;;0.10;;
23165;SDS011;11751;42.700;24.170;2024-01-15T08:27:53;0.10;;;0.10;;
23165;SDS011;11751;42.700;24.170;2024-01-15T08:30:18;0.10;;;0.10;;
23165;SDS011;11751;42.700;24.170;2024-01-15T08:32:44;0.10;;;0.10;;
23165;SDS011;11751;42.700;24.170;2024-01-15T08:35:10;0.10;;;0.10;;
23165;SDS011;11751;42.700;24.170;2024-01-15T08:37:36;0.10;;;0.10;;
23165;SDS011;11751;42.700;24.170;2024-01-15T08:40:02;0.10;;;0.10;;
23165;SDS011;11751;42.700;24.170;2024-01-15T08:42:28;0.00;;;0.00;;
23165;SDS011;11751;42.700;24.170;2024-01-15T08:44:54;0.10;;;0.10;;
23165;SDS011;11751;42.700;24.170;2024-01-15T08:47:19;0.08;;;0.08;;
23165;SDS011;11751;42.700;24.170;2024-01-15T08:49:45;0.00;;;0.00;;
23165;SDS011;11751;42.700;24.170;2024-01-15T08:52:11;0.10;;;0.10;;
23165;SDS011;11751;42.700;24.170;2024-01-15T08:54:36;0.10;;;0.10;;
23165;SDS011;11751;42.700;24.170;2024-01-15T08:57:02;0.10;;;0.10;;
23165;SDS011;11751;42.700;24.170;2024-01-15T08:59:28;0.00;;;0.00;;
23165;SDS011;11751;42.700;24.170;2024-01-15T09:01:53;0.03;;;0.03;;
23165;SDS011;11751;42.700;24.170;2024-01-15T09:04:21;0.10;;;0.10;;
23165;SDS011;11751;42.700;24.170;2024-01-15T09:06:47;0.10;;;0.10;;
23165;SDS011;11751;42.700;24.170;2024-01-15T09:09:13;0.10;;;0.10;;
23165;SDS011;11751;42.700;24.170;2024-01-15T09:11:40;0.08;;;0.08;;
23165;SDS011;11751;42.700;24.170;2024-01-15T09:14:05;0.10;;;0.10;;
23165;SDS011;11751;42.700;24.170;2024-01-15T09:16:31;0.00;;;0.00;;
23165;SDS011;11751;42.700;24.170;2024-01-15T09:18:56;0.10;;;0.10;;
23165;SDS011;11751;42.700;24.170;2024-01-15T09:21:22;0.00;;;0.00;;
23165;SDS011;11751;42.700;24.170;2024-01-15T09:23:49;0.10;;;0.10;;
23165;SDS011;11751;42.700;24.170;2024-01-15T09:26:15;0.00;;;0.00;;
23165;SDS011;11751;42.700;24.170;2024-01-15T09:28:41;0.00;;;0.00;;
23165;SDS011;11751;42.700;24.170;2024-01-15T09:31:07;0.00;;;0.00;;
23165;SDS011;11751;42.700;24.170;2024-01-15T09:33:32;0.00;;;0.00;;
23165;SDS011;11751;42.700;24.170;2024-01-15T09:38:33;0.05;;;0.05;;
23165;SDS011;11751;42.700;24.170;2024-01-15T09:40:58;0.00;;;0.00;;
23165;SDS011;11751;42.700;24.170;2024-01-15T09:43:24;0.10;;;0.10;;
23165;SDS011;11751;42.700;24.170;2024-01-15T09:45:49;0.08;;;0.08;;
23165;SDS011;11751;42.700;24.170;2024-01-15T09:48:15;0.00;;;0.00;;
23165;SDS011;11751;42.700;24.170;2024-01-15T09:50:41;0.10;;;0.10;;
23165;SDS011;11751;42.700;24.170;2024-01-15T09:53:08;0.10;;;0.10;;
23165;SDS011;11751;42.700;24.170;2024-01-15T09:55:35;0.00;;;0.00;;
23165;SDS011;11751;42.700;24.170;2024-01-15T09:58:03;0.00;;;0.00;;
23165;SDS011;11751;42.700;24.170;2024-01-15T10:00:28;0.00;;;0.00;;
23165;SDS011;11751;42.700;24.170;2024-01-15T10:02:56;0.00;;;0.00;;
23165;SDS011;11751;42.700;24.170;2024-01-15T10:05:21;0.00;;;0.00;;
23165;SDS011;11751;42.700;24.170;2024-01-15T10:07:47;0.10;;;0.10;;
23165;SDS011;11751;42.700;24.170;2024-01-15T10:10:16;0.00;;;0.00;;
23165;SDS011;11751;42.700;24.170;2024-01-15T10:12:42;0.00;;;0.00;;
23165;SDS011;11751;42.700;24.170;2024-01-15T10:15:10;0.00;;;0.00;;
23165;SDS011;11751;42.700;24.170;2024-01-15T10:17:39;0.00;;;0.00;;
23165;SDS011;11751;42.700;24.170;2024-01-15T10:20:09;0.00;;;0.00;;
23165;SDS011;11751;42.700;24.170;2024-01-15T10:22:39;0.00;;;0.00;;
23165;SDS011;11751;42.700;24.170;2024-01-15T10:25:13;0.00;;;0.00;;
23165;SDS011;11751;42.700;24.170;2024-01-15T10:27:42;0.08;;;0.08;;
23165;SDS011;11751;42.700;24.170;2024-01-15T10:30:09;0.00;;;0.00;;
23165;SDS011;11751;42.700;24.170;2024-01-15T10:32:35;0.00;;;0.00;;
23165;SDS011;11751;42.700;24.170;2024-01-15T10:35:00;0.05;;;0.05;;
23165;SDS011;11751;42.700;24.170;2024-01-15T10:37:25;0.00;;;0.00;;
23165;SDS011;11751;42.700;24.170;2024-01-15T10:39:52;0.00;;;0.00;;
23165;SDS011;11751;42.700;24.170;2024-01-15T10:42:17;0.10;;;0.10;;
23165;SDS011;11751;42.700;24.170;2024-01-15T10:44:43;0.00;;;0.00;;
23165;SDS011;11751;42.700;24.170;2024-01-15T10:47:10;0.00;;;0.00;;
23165;SDS011;11751;42.700;24.170;2024-01-15T10:49:36;0.00;;;0.00;;
23165;SDS011;11751;42.700;24.170;2024-01-15T10:52:02;0.00;;;0.00;;
23165;SDS011;11751;42.700;24.170;2024-01-15T10:54:28;0.00;;;0.00;;
23165;SDS011;11751;42.700;24.170;2024-01-15T10:56:54;0.00;;;0.00;;
23165;SDS011;11751;42.700;24.170;2024-01-15T10:59:21;0.00;;;0.00;;
23165;SDS011;11751;42.700;24.170;2024-01-15T11:01:50;0.00;;;0.00;;
23165;SDS011;11751;42.700;24.170;2024-01-15T11:04:19;0.03;;;0.03;;
23165;SDS011;11751;42.700;24.170;2024-01-15T11:06:46;0.00;;;0.00;;
23165;SDS011;11751;42.700;24.170;2024-01-15T11:09:21;0.00;;;0.00;;
23165;SDS011;11751;42.700;24.170;2024-01-15T11:11:46;0.00;;;0.00;;
23165;SDS011;11751;42.700;24.170;2024-01-15T11:14:33;0.00;;;0.00;;
23165;SDS011;11751;42.700;24.170;2024-01-15T11:17:00;0.00;;;0.00;;
23165;SDS011;11751;42.700;24.170;2024-01-15T11:19:25;0.00;;;0.00;;
23165;SDS011;11751;42.700;24.170;2024-01-15T11:21:51;0.03;;;0.03;;
23165;SDS011;11751;42.700;24.170;2024-01-15T11:24:35;0.00;;;0.00;;
23165;SDS011;11751;42.700;24.170;2024-01-15T11:27:06;0.00;;;0.00;;
23165;SDS011;11751;42.700;24.170;2024-01-15T11:37:24;0.00;;;0.00;;
23165;SDS011;11751;42.700;24.170;2024-01-15T11:39:54;0.00;;;0.00;;
23165;SDS011;11751;42.700;24.170;2024-01-15T11:42:21;0.00;;;0.00;;
23165;SDS011;11751;42.700;24.170;2024-01-15T11:44:48;0.00;;;0.00;;
23165;SDS011;11751;42.700;24.170;2024-01-15T11:47:14;0.00;;;0.00;;
23165;SDS011;11751;42.700;24.170;2024-01-15T11:52:27;0.00;;;0.00;;
23165;SDS011;11751;42.700;24.170;2024-01-15T11:57:52;0.00;;;0.00;;
23165;SDS011;11751;42.700;24.170;2024-01-15T12:00:19;0.00;;;0.00;;
23165;SDS011;11751;42.700;24.170;2024-01-15T12:02:46;0.00;;;0.00;;
23165;SDS011;11751;42.700;24.170;2024-01-15T12:05:13;0.00;;;0.00;;
23165;SDS011;11751;42.700;24.170;2024-01-15T12:07:46;0.00;;;0.00;;
23165;SDS011;11751;42.700;24.170;2024-01-15T12:10:19;0.00;;;0.00;;
23165;SDS011;11751;42.700;24.170;2024-01-15T12:15:43;0.00;;;0.00;;
23165;SDS011;11751;42.700;24.170;2024-01-15T12:18:12;0.00;;;0.00;;
23165;SDS011;11751;42.700;24.170;2024-01-15T12:20:39;0.00;;;0.00;;
23165;SDS011;11751;42.700;24.170;2024-01-15T12:23:05;0.00;;;0.00;;
23165;SDS011;11751;42.700;24.170;2024-01-15T12:25:33;0.00;;;0.00;;
23165;SDS011;11751;42.700;24.170;2024-01-15T12:27:59;0.00;;;0.00;;
23165;SDS011;11751;42.700;24.170;2024-01-15T12:30:26;0.00;;;0.00;;
23165;SDS011;11751;42.700;24.170;2024-01-15T12:32:52;0.00;;;0.00;;
23165;SDS011;11751;42.700;24.170;2024-01-15T12:35:18;0.00;;;0.00;;
23165;SDS011;11751;42.700;24.170;2024-01-15T12:37:43;0.00;;;0.00;;
23165;SDS011;11751;42.700;24.170;2024-01-15T12:40:11;0.00;;;0.00;;
23165;SDS011;11751;42.700;24.170;2024-01-15T12:42:37;0.00;;;0.00;;
23165;SDS011;11751;42.700;24.170;2024-01-15T12:45:07;0.00;;;0.00;;
23165;SDS011;11751;42.700;24.170;2024-01-15T12:47:34;0.00;;;0.00;;
23165;SDS011;11751;42.700;24.170;2024-01-15T12:50:01;0.00;;;0.00;;
23165;SDS011;11751;42.700;24.170;2024-01-15T12:52:27;0.00;;;0.00;;
23165;SDS011;11751;42.700;24.170;2024-01-15T12:54:53;0.00;;;0.00;;
23165;SDS011;11751;42.700;24.170;2024-01-15T12:57:18;0.00;;;0.00;;
23165;SDS011;11751;42.700;24.170;2024-01-15T12:59:44;0.00;;;0.00;;
23165;SDS011;11751;42.700;24.170;2024-01-15T13:02:13;0.00;;;0.00;;
23165;SDS011;11751;42.700;24.170;2024-01-15T13:04:39;0.00;;;0.00;;
23165;SDS011;11751;42.700;24.170;2024-01-15T13:07:08;0.00;;;0.00;;
23165;SDS011;11751;42.700;24.170;2024-01-15T13:09:33;0.00;;;0.00;;
23165;SDS011;11751;42.700;24.170;2024-01-15T13:12:00;0.00;;;0.00;;
23165;SDS011;11751;42.700;24.170;2024-01-15T13:14:26;0.00;;;0.00;;
23165;SDS011;11751;42.700;24.170;2024-01-15T13:16:51;0.00;;;0.00;;
23165;SDS011;11751;42.700;24.170;2024-01-15T13:19:18;0.00;;;0.00;;
23165;SDS011;11751;42.700;24.170;2024-01-15T13:21:44;0.00;;;0.00;;
23165;SDS011;11751;42.700;24.170;2024-01-15T13:24:10;0.00;;;0.00;;
23165;SDS011;11751;42.700;24.170;2024-01-15T13:26:39;0.00;;;0.00;;
23165;SDS011;11751;42.700;24.170;2024-01-15T13:29:05;0.00;;;0.00;;
23165;SDS011;11751;42.700;24.170;2024-01-15T13:31:31;0.00;;;0.00;;
23165;SDS011;11751;42.700;24.170;2024-01-15T13:33:57;0.00;;;0.00;;
23165;SDS011;11751;42.700;24.170;2024-01-15T13:36:23;0.00;;;0.00;;
23165;SDS011;11751;42.700;24.170;2024-01-15T13:38:49;0.00;;;0.00;;
23165;SDS011;11751;42.700;24.170;2024-01-15T13:41:15;0.00;;;0.00;;
23165;SDS011;11751;42.700;24.170;2024-01-15T13:43:43;0.00;;;0.00;;
23165;SDS011;11751;42.700;24.170;2024-01-15T13:46:09;0.00;;;0.00;;
23165;SDS011;11751;42.700;24.170;2024-01-15T13:48:34;0.00;;;0.00;;
23165;SDS011;11751;42.700;24.170;2024-01-15T13:51:00;0.00;;;0.00;;
23165;SDS011;11751;42.700;24.170;2024-01-15T13:53:25;0.00;;;0.00;;
23165;SDS011;11751;42.700;24.170;2024-01-15T13:55:51;0.00;;;0.00;;
23165;SDS011;11751;42.700;24.170;2024-01-15T13:58:17;0.00;;;0.00;;
23165;SDS011;11751;42.700;24.170;2024-01-15T14:00:43;0.00;;;0.00;;
23165;SDS011;11751;42.700;24.170;2024-01-15T14:03:09;0.00;;;0.00;;
23165;SDS011;11751;42.700;24.170;2024-01-15T14:05:34;0.00;;;0.00;;
23165;SDS011;11751;42.700;24.170;2024-01-15T14:07:59;0.00;;;0.00;;
23165;SDS011;11751;42.700;24.170;2024-01-15T14:10:25;0.00;;;0.00;;
23165;SDS011;11751;42.700;24.170;2024-01-15T14:12:50;0.00;;;0.00;;
23165;SDS011;11751;42.700;24.170;2024-01-15T14:15:16;0.00;;;0.00;;
23165;SDS011;11751;42.700;24.170;2024-01-15T14:17:41;0.00;;;0.00;;
23165;SDS011;11751;42.700;24.170;2024-01-15T14:20:07;0.00;;;0.00;;
23165;SDS011;11751;42.700;24.170;2024-01-15T14:22:34;0.00;;;0.00;;
23165;SDS011;11751;42.700;24.170;2024-01-15T14:25:00;0.00;;;0.00;;
23165;SDS011;11751;42.700;24.170;2024-01-15T14:27:26;0.00;;;0.00;;
23165;SDS011;11751;42.700;24.170;2024-01-15T14:29:51;0.00;;;0.00;;
23165;SDS011;11751;42.700;24.170;2024-01-15T14:32:16;0.00;;;0.00;;
23165;SDS011;11751;42.700;24.170;2024-01-15T14:34:42;0.00;;;0.00;;
23165;SDS011;11751;42.700;24.170;2024-01-15T14:37:08;0.00;;;0.00;;
23165;SDS011;11751;42.700;24.170;2024-01-15T14:39:33;0.00;;;0.00;;
23165;SDS011;11751;42.700;24.170;2024-01-15T14:41:59;0.00;;;0.00;;
23165;SDS011;11751;42.700;24.170;2024-01-15T14:44:25;0.00;;;0.00;;
23165;SDS011;11751;42.700;24.170;2024-01-15T14:46:51;0.00;;;0.00;;